YMAY Airport Information

Runway Information
Runway 07 Length 6234 ft width 98 ft
Elevation 539 ft Threshold 0 ft Heading 81
Runway 25 Length 6234 ft Width 98 ft
Elevation 531 ft Threshold 0 ft Heading 261
Airport Frequencies
Type ATIS Name ATIS Frequency 115.6 MHZ
Type CTAF Name CTAF Frequency 124.2 MHZ
Type FSS Name MELBOURNE Frequency 125.2 MHZ
Type TWR Name TWR Frequency 124.2 MHZ
Airport Navaids
Type VOR-DME Name Albury Frequency 115600 KHZ
Type NDB Name Albury Frequency 236 KHZ
Airport Weather Information & NOTAM
ADDS - METARS form results

(1628 UTC 07 December 2019)
Data provider http://aviationweather.gov/metar/data/
 
METAR text: YMAY 071600Z AUTO 12004KT 9999 // NCD 15/06 Q1015
Conditions at: YMAY (ALBURY AIRPORT , AU) observed 1600 UTC 07 December 2019
Temperature: 15.0°C (59°F)
Dewpoint: 6.0°C (43°F) [RH = 55%]
Pressure (altimeter): 29.97 inches Hg (1015.0 mb)
Winds: from the ESE (120 degrees) at 5 MPH (4 knots; 2.1 m/s)
Visibility: 6 or more miles (10+ km)
Ceiling: at least 12,000 feet AGL
Clouds: sky clear below 12,000 feet AGL
Weather: no significant weather observed at this time